createdAt,value
2023-04-03T00:01:29.239Z,43.33
2023-04-03T00:03:57.717Z,43.64
2023-04-03T00:06:27.221Z,43.60
2023-04-03T00:08:55.532Z,43.74
2023-04-03T00:11:23.840Z,44.09
2023-04-03T00:13:53.370Z,44.42
2023-04-03T00:16:21.514Z,44.44
2023-04-03T00:18:49.565Z,44.51
2023-04-03T00:21:17.646Z,44.46
2023-04-03T00:23:45.758Z,44.51
2023-04-03T00:26:13.802Z,44.80
2023-04-03T00:28:42.559Z,45.19
2023-04-03T00:31:12.310Z,45.39
2023-04-03T00:33:40.389Z,45.26
2023-04-03T00:36:10.136Z,45.22
2023-04-03T00:38:38.687Z,45.67
2023-04-03T00:41:07.539Z,45.65
2023-04-03T00:43:35.813Z,45.67
2023-04-03T00:46:03.948Z,45.82
2023-04-03T00:48:36.739Z,45.75
2023-04-03T00:51:07.953Z,45.73
2023-04-03T00:53:40.800Z,45.91
2023-04-03T00:56:12.697Z,45.92
2023-04-03T00:58:46.176Z,46.05
2023-04-03T01:01:18.426Z,46.13
2023-04-03T01:03:47.993Z,46.18
2023-04-03T01:06:19.084Z,46.60
2023-04-03T01:08:50.700Z,46.64
2023-04-03T01:11:19.398Z,46.86
2023-04-03T01:13:47.481Z,46.67
2023-04-03T01:16:15.711Z,46.99
2023-04-03T01:18:44.896Z,46.96
2023-04-03T01:21:53.747Z,46.63
2023-04-03T01:24:34.379Z,46.65
2023-04-03T01:27:06.747Z,46.81
2023-04-03T01:29:34.836Z,46.91
2023-04-03T01:32:05.832Z,46.88
2023-04-03T01:34:34.246Z,47.14
2023-04-03T01:37:03.079Z,47.22
2023-04-03T01:39:31.160Z,47.21
2023-04-03T01:42:00.275Z,47.19
2023-04-03T01:44:32.879Z,47.27
2023-04-03T01:47:01.375Z,47.47
2023-04-03T01:49:32.014Z,47.49
2023-04-03T01:52:00.385Z,47.51
2023-04-03T01:54:28.437Z,47.47
2023-04-03T01:56:56.639Z,47.56
2023-04-03T01:59:24.825Z,47.50
2023-04-03T02:01:53.338Z,47.46
2023-04-03T02:04:21.483Z,47.50
2023-04-03T02:06:50.956Z,47.63
2023-04-03T02:09:19.038Z,47.64
2023-04-03T02:11:47.103Z,47.75
2023-04-03T02:14:15.553Z,48.24
2023-04-03T02:16:43.766Z,48.64
2023-04-03T02:19:11.905Z,49.05
2023-04-03T02:21:39.988Z,49.07
2023-04-03T02:24:09.915Z,49.47
2023-04-03T02:26:38.036Z,49.60
2023-04-03T02:29:06.893Z,49.53
2023-04-03T02:31:36.668Z,49.94
2023-04-03T02:34:05.081Z,50.56
2023-04-03T02:36:33.397Z,50.80
2023-04-03T02:39:05.429Z,50.80
2023-04-03T02:41:36.421Z,50.78
2023-04-03T02:44:09.007Z,50.76
2023-04-03T02:46:37.294Z,50.80
2023-04-03T02:49:06.796Z,51.00
2023-04-03T02:51:34.908Z,50.98
2023-04-03T02:54:03.205Z,50.87
2023-04-03T02:56:36.444Z,50.85
2023-04-03T02:59:04.856Z,50.89
2023-04-03T03:01:34.830Z,50.96
2023-04-03T03:04:03.019Z,51.02
2023-04-03T03:06:31.128Z,51.12
2023-04-03T03:08:59.171Z,51.20
2023-04-03T03:11:27.480Z,51.41
2023-04-03T03:13:56.942Z,51.37
2023-04-03T03:16:27.581Z,51.29
2023-04-03T03:18:57.765Z,51.24
2023-04-03T03:21:26.371Z,51.23
2023-04-03T03:23:54.467Z,51.16
2023-04-03T03:26:22.686Z,51.10
2023-04-03T03:28:50.870Z,51.14
2023-04-03T03:31:20.649Z,51.30
2023-04-03T03:33:48.732Z,51.31
2023-04-03T03:36:16.908Z,51.30
2023-04-03T03:38:44.995Z,51.35
2023-04-03T03:41:13.079Z,51.33
2023-04-03T03:43:43.280Z,51.31
2023-04-03T03:46:12.381Z,51.30
2023-04-03T03:48:41.921Z,51.36
2023-04-03T03:51:09.976Z,51.36
2023-04-03T03:53:40.056Z,51.40
2023-04-03T03:56:11.469Z,51.38
2023-04-03T03:58:41.464Z,51.35
2023-04-03T04:01:10.040Z,51.41
2023-04-03T04:03:45.613Z,51.43
2023-04-03T04:06:17.956Z,51.53
2023-04-03T04:08:46.280Z,51.69
2023-04-03T04:11:15.747Z,51.71
2023-04-03T04:13:45.876Z,51.85
2023-04-03T04:16:15.600Z,51.85
2023-04-03T04:18:45.055Z,51.83
2023-04-03T04:21:13.155Z,51.92
2023-04-03T04:23:41.865Z,51.95
2023-04-03T04:26:10.320Z,51.95
2023-04-03T04:28:40.282Z,51.95
2023-04-03T04:31:08.998Z,51.95
2023-04-03T04:33:37.807Z,52.04
2023-04-03T04:36:09.170Z,52.15
2023-04-03T04:38:37.620Z,52.17
2023-04-03T04:41:05.724Z,52.11
2023-04-03T04:43:34.539Z,52.10
2023-04-03T04:46:04.780Z,52.12
2023-04-03T04:48:36.583Z,52.11
2023-04-03T04:51:08.660Z,52.09
2023-04-03T04:53:38.721Z,52.11
2023-04-03T04:56:08.560Z,52.13
2023-04-03T04:58:38.733Z,52.16
2023-04-03T05:01:09.870Z,52.12
2023-04-03T05:03:44.074Z,52.12
2023-04-03T05:06:14.151Z,52.13
2023-04-03T05:08:42.435Z,52.18
2023-04-03T05:11:10.870Z,52.23
2023-04-03T05:13:40.264Z,52.25
2023-04-03T05:16:08.788Z,52.29
2023-04-03T05:18:37.088Z,52.30
2023-04-03T05:21:09.491Z,52.34
2023-04-03T05:23:39.289Z,52.37
2023-04-03T05:26:08.016Z,52.49
2023-04-03T05:28:37.492Z,52.59
2023-04-03T05:31:06.883Z,52.59
2023-04-03T05:33:37.893Z,52.60
2023-04-03T05:36:09.545Z,52.64
2023-04-03T05:38:44.719Z,52.73
2023-04-03T05:41:13.433Z,52.94
2023-04-03T05:43:41.986Z,53.10
2023-04-03T05:46:13.587Z,53.42
2023-04-03T05:48:43.728Z,53.34
2023-04-03T05:51:19.024Z,53.14
2023-04-03T05:53:53.339Z,53.20
2023-04-03T05:56:21.574Z,53.59
2023-04-03T05:58:49.708Z,53.97
2023-04-03T06:01:18.111Z,54.11
2023-04-03T06:03:47.060Z,54.14
2023-04-03T06:06:16.493Z,54.13
2023-04-03T06:08:45.674Z,54.20
2023-04-03T06:11:16.008Z,54.37
2023-04-03T06:13:44.070Z,54.36
2023-04-03T06:16:16.407Z,54.28
2023-04-03T06:18:44.788Z,54.35
2023-04-03T06:21:13.624Z,54.33
2023-04-03T06:23:42.902Z,54.30
2023-04-03T06:26:11.312Z,54.26
2023-04-03T06:28:40.813Z,54.18
2023-04-03T06:31:09.819Z,54.29
2023-04-03T06:33:37.880Z,54.30
2023-04-03T06:36:07.602Z,54.20
2023-04-03T06:38:37.242Z,54.13
2023-04-03T06:41:05.340Z,53.93
2023-04-03T06:43:34.829Z,53.70
2023-04-03T06:46:04.610Z,53.65
2023-04-03T06:48:32.901Z,53.41
2023-04-03T06:51:00.935Z,53.07
2023-04-03T06:53:28.959Z,52.70
2023-04-03T06:55:56.949Z,52.28
2023-04-03T06:58:25.215Z,51.91
2023-04-03T07:00:53.271Z,51.53
2023-04-03T07:03:22.780Z,51.32
2023-04-03T07:05:50.841Z,50.94
2023-04-03T07:08:18.887Z,50.69
2023-04-03T07:10:47.008Z,50.10
2023-04-03T07:13:15.210Z,49.63
2023-04-03T07:15:43.594Z,49.53
2023-04-03T07:18:11.769Z,49.34
2023-04-03T07:20:42.523Z,48.66
2023-04-03T07:23:11.444Z,47.67
2023-04-03T07:25:43.912Z,47.99
2023-04-03T07:28:12.715Z,46.75
2023-04-03T07:30:46.232Z,44.29
2023-04-03T07:33:15.400Z,43.40
2023-04-03T07:35:45.718Z,42.83
2023-04-03T07:38:14.244Z,40.91
2023-04-03T07:40:42.352Z,40.30
2023-04-03T07:43:10.402Z,39.10
2023-04-03T07:45:38.580Z,38.12
2023-04-03T07:48:07.343Z,36.96
2023-04-03T07:50:35.632Z,36.89
2023-04-03T07:53:05.825Z,35.94
2023-04-03T07:55:35.061Z,36.93
2023-04-03T07:58:03.315Z,35.25
2023-04-03T08:00:31.459Z,36.50
2023-04-03T08:02:59.540Z,36.29
2023-04-03T08:05:27.975Z,35.42
2023-04-03T08:07:56.034Z,35.00
2023-04-03T08:10:25.583Z,34.83
2023-04-03T08:12:53.661Z,34.81
2023-04-03T08:15:22.001Z,35.11
2023-04-03T08:17:50.422Z,32.56
2023-04-03T08:20:18.638Z,34.62
2023-04-03T08:22:46.734Z,35.59
2023-04-03T08:25:15.631Z,34.56
2023-04-03T08:27:45.071Z,35.21
2023-04-03T08:30:14.337Z,33.54
2023-04-03T08:32:44.188Z,32.89
2023-04-03T08:35:12.953Z,33.79
2023-04-03T08:37:42.244Z,33.58
2023-04-03T08:40:16.970Z,31.93
2023-04-03T08:43:01.028Z,32.58
2023-04-03T08:45:43.544Z,28.50
2023-04-03T08:48:16.227Z,31.16
2023-04-03T08:50:47.691Z,30.80
2023-04-03T08:53:17.925Z,30.31
2023-04-03T08:55:48.580Z,31.66
2023-04-03T08:58:21.291Z,30.94
2023-04-03T09:00:52.584Z,30.00
2023-04-03T09:03:23.105Z,28.62
2023-04-03T09:05:55.889Z,27.29
2023-04-03T09:08:27.062Z,26.63
2023-04-03T09:11:05.597Z,25.97
2023-04-03T09:13:39.642Z,26.29
2023-04-03T09:16:17.639Z,26.22
2023-04-03T09:18:50.727Z,26.08
2023-04-03T09:21:23.968Z,24.86
2023-04-03T09:23:53.705Z,24.12
2023-04-03T09:26:27.070Z,22.70
2023-04-03T09:29:00.594Z,22.27
2023-04-03T09:31:31.365Z,20.95
2023-04-03T09:34:04.844Z,20.86
2023-04-03T09:36:47.823Z,20.31
2023-04-03T09:39:18.691Z,19.44
2023-04-03T09:42:00.700Z,20.55
2023-04-03T09:44:32.457Z,19.34
2023-04-03T09:47:01.307Z,19.83
2023-04-03T09:49:29.820Z,18.31
2023-04-03T09:51:57.803Z,16.97
2023-04-03T09:54:42.234Z,15.45
2023-04-03T09:57:14.454Z,17.83
2023-04-03T09:59:48.315Z,16.14
2023-04-03T10:02:36.480Z,16.66
2023-04-03T10:05:09.877Z,16.71
2023-04-03T10:07:41.318Z,15.32
2023-04-03T10:10:21.188Z,14.13
2023-04-03T10:12:50.189Z,14.51
2023-04-03T10:15:21.101Z,16.11
2023-04-03T10:18:00.397Z,17.76
2023-04-03T10:20:37.424Z,16.92
2023-04-03T10:23:20.998Z,13.56
2023-04-03T10:26:03.486Z,15.36
2023-04-03T10:28:40.901Z,16.88
2023-04-03T10:31:15.647Z,16.03
2023-04-03T10:34:01.780Z,15.01
2023-04-03T10:36:38.323Z,14.73
2023-04-03T10:39:16.546Z,14.09
2023-04-03T10:41:58.246Z,13.65
2023-04-03T10:44:48.768Z,13.17
2023-04-03T10:47:23.309Z,13.45
2023-04-03T10:50:01.621Z,14.63
2023-04-03T10:52:39.971Z,14.42
2023-04-03T10:55:25.445Z,13.81
2023-04-03T10:57:55.225Z,14.40
2023-04-03T11:00:28.647Z,14.17
2023-04-03T11:03:01.148Z,13.37
2023-04-03T11:05:36.896Z,13.20
2023-04-03T11:08:10.771Z,11.97
2023-04-03T11:10:43.909Z,12.23
2023-04-03T11:13:17.159Z,13.04
2023-04-03T11:15:47.417Z,12.94
2023-04-03T11:18:21.425Z,12.04
2023-04-03T11:20:58.605Z,13.52
2023-04-03T11:23:32.742Z,12.89
2023-04-03T11:26:12.533Z,12.91
2023-04-03T11:28:41.803Z,12.75
2023-04-03T11:31:21.906Z,12.20
2023-04-03T11:34:00.435Z,12.52
2023-04-03T11:36:35.695Z,12.98
2023-04-03T11:39:23.611Z,12.94
2023-04-03T11:41:57.554Z,12.30
2023-04-03T11:44:37.694Z,12.78
2023-04-03T11:47:07.002Z,12.71
2023-04-03T11:50:01.683Z,12.34
2023-04-03T11:53:01.512Z,12.82
2023-04-03T11:55:46.613Z,13.15
2023-04-03T11:58:16.972Z,13.22
2023-04-03T12:01:09.642Z,12.88
2023-04-03T12:04:15.928Z,11.68
2023-04-03T12:07:00.673Z,12.49
2023-04-03T12:09:33.851Z,13.42
2023-04-03T12:12:23.039Z,12.41
2023-04-03T12:14:53.234Z,11.60
2023-04-03T12:17:27.198Z,12.14
2023-04-03T12:19:55.548Z,11.94
2023-04-03T12:22:25.229Z,12.06
2023-04-03T12:24:55.063Z,12.68
2023-04-03T12:27:35.316Z,11.87
2023-04-03T12:30:19.325Z,11.98
2023-04-03T12:33:13.933Z,12.17
2023-04-03T12:35:51.848Z,12.78
2023-04-03T12:39:05.611Z,12.26
2023-04-03T12:41:41.006Z,13.05
2023-04-03T12:44:29.090Z,11.53
2023-04-03T12:46:57.184Z,11.86
2023-04-03T12:49:37.380Z,11.88
2023-04-03T12:52:08.171Z,11.85
2023-04-03T12:54:40.719Z,12.20
2023-04-03T12:57:19.170Z,12.94
2023-04-03T12:59:48.128Z,12.42
2023-04-03T13:02:24.882Z,12.56
2023-04-03T13:04:53.991Z,11.72
2023-04-03T13:07:29.631Z,12.23
2023-04-03T13:10:00.088Z,12.00
2023-04-03T13:12:31.838Z,12.93
2023-04-03T13:15:05.214Z,12.74
2023-04-03T13:17:35.059Z,13.42
2023-04-03T13:20:15.744Z,12.99
2023-04-03T13:22:52.272Z,12.78
2023-04-03T13:25:21.813Z,14.24
2023-04-03T13:27:53.875Z,14.50
2023-04-03T13:30:30.432Z,12.44
2023-04-03T13:33:01.421Z,12.39
2023-04-03T13:35:33.425Z,13.45
2023-04-03T13:38:03.505Z,13.74
2023-04-03T13:40:41.422Z,13.21
2023-04-03T13:43:22.914Z,12.84
2023-04-03T13:46:22.512Z,13.39
2023-04-03T13:48:53.202Z,12.43
2023-04-03T13:51:25.525Z,13.17
2023-04-03T13:53:55.584Z,12.33
2023-04-03T13:56:28.478Z,12.28
2023-04-03T13:59:23.810Z,11.88
2023-04-03T14:01:55.150Z,11.98
2023-04-03T14:04:24.987Z,12.55
2023-04-03T14:06:53.588Z,12.85
2023-04-03T14:09:23.262Z,11.97
2023-04-03T14:11:55.136Z,12.30
2023-04-03T14:14:26.758Z,13.39
2023-04-03T14:16:57.700Z,12.68
2023-04-03T14:19:30.118Z,13.71
2023-04-03T14:22:00.050Z,12.90
2023-04-03T14:24:29.224Z,12.88
2023-04-03T14:26:57.652Z,13.07
2023-04-03T14:29:27.081Z,12.39
2023-04-03T14:32:07.489Z,12.14
2023-04-03T14:34:43.917Z,13.26
2023-04-03T14:37:14.732Z,12.51
2023-04-03T14:39:43.744Z,13.15
2023-04-03T14:42:15.670Z,12.89
2023-04-03T14:44:45.404Z,13.58
2023-04-03T14:47:27.449Z,14.22
2023-04-03T14:49:59.552Z,13.64
2023-04-03T14:52:30.578Z,13.59
2023-04-03T14:54:59.681Z,14.45
2023-04-03T14:57:30.446Z,14.77
2023-04-03T15:00:01.720Z,14.28
2023-04-03T15:02:32.261Z,14.57
2023-04-03T15:05:01.577Z,14.14
2023-04-03T15:07:31.651Z,14.72
2023-04-03T15:10:00.201Z,14.84
2023-04-03T15:12:28.273Z,15.37
2023-04-03T15:15:01.902Z,15.36
2023-04-03T15:17:33.049Z,16.50
2023-04-03T15:20:01.376Z,16.16
2023-04-03T15:22:29.466Z,16.69
2023-04-03T15:24:57.508Z,16.87
2023-04-03T15:27:25.540Z,16.61
2023-04-03T15:29:53.524Z,16.61
2023-04-03T15:32:21.594Z,16.52
2023-04-03T15:34:51.867Z,16.19
2023-04-03T15:37:21.717Z,16.37
2023-04-03T15:39:49.809Z,16.48
2023-04-03T15:42:19.823Z,16.15
2023-04-03T15:44:48.012Z,16.11
2023-04-03T15:47:16.318Z,16.37
2023-04-03T15:49:44.545Z,16.83
2023-04-03T15:52:13.933Z,17.48
2023-04-03T15:54:41.994Z,16.81
2023-04-03T15:57:10.217Z,16.76
2023-04-03T15:59:38.350Z,17.66
2023-04-03T16:02:09.818Z,17.03
2023-04-03T16:04:37.975Z,16.61
2023-04-03T16:07:06.833Z,16.96
2023-04-03T16:09:37.071Z,17.86
2023-04-03T16:12:05.497Z,17.70
2023-04-03T16:14:33.762Z,18.55
2023-04-03T16:17:02.488Z,18.50
2023-04-03T16:19:31.795Z,17.32
2023-04-03T16:21:59.951Z,17.90
2023-04-03T16:24:28.125Z,17.53
2023-04-03T16:26:57.701Z,17.70
2023-04-03T16:29:25.744Z,18.32
2023-04-03T16:31:54.045Z,18.57
2023-04-03T16:34:22.514Z,18.87
2023-04-03T16:36:51.151Z,18.38
2023-04-03T16:39:19.207Z,18.74
2023-04-03T16:41:47.368Z,18.76
2023-04-03T16:44:16.847Z,19.04
2023-04-03T16:46:46.218Z,19.82
2023-04-03T16:49:16.130Z,19.29
2023-04-03T16:51:44.162Z,19.63
2023-04-03T16:54:14.427Z,19.67
2023-04-03T16:56:42.505Z,19.97
2023-04-03T16:59:10.745Z,19.72
2023-04-03T17:01:40.159Z,19.95
2023-04-03T17:04:08.367Z,19.04
2023-04-03T17:06:36.726Z,19.16
2023-04-03T17:09:04.954Z,19.26
2023-04-03T17:14:06.672Z,19.94
2023-04-03T17:16:37.442Z,20.73
2023-04-03T17:19:07.464Z,20.88
2023-04-03T17:21:35.957Z,21.63
2023-04-03T17:24:09.258Z,22.01
2023-04-03T17:26:38.484Z,22.43
2023-04-03T17:29:06.707Z,22.70
2023-04-03T17:31:34.982Z,23.11
2023-04-03T17:34:03.313Z,23.18
2023-04-03T17:36:33.915Z,24.01
2023-04-03T17:39:02.457Z,24.38
2023-04-03T17:41:30.784Z,25.10
2023-04-03T17:43:59.088Z,25.68
2023-04-03T17:46:27.809Z,26.10
2023-04-03T17:48:55.883Z,26.39
2023-04-03T17:51:58.544Z,27.20
2023-04-03T17:54:26.655Z,27.65
2023-04-03T17:56:55.184Z,27.94
2023-04-03T17:59:23.318Z,28.24
2023-04-03T18:01:52.730Z,28.48
2023-04-03T18:04:20.982Z,29.29
2023-04-03T18:06:52.188Z,29.98
2023-04-03T18:09:24.641Z,30.18
2023-04-03T18:11:53.934Z,30.37
2023-04-03T18:14:25.167Z,31.08
2023-04-03T18:16:53.314Z,31.26
2023-04-03T18:19:23.857Z,31.52
2023-04-03T18:21:52.991Z,31.67
2023-04-03T18:24:23.794Z,32.28
2023-04-03T18:26:55.691Z,32.19
2023-04-03T18:29:24.431Z,32.67
2023-04-03T18:31:55.159Z,32.91
2023-04-03T18:34:23.406Z,33.17
2023-04-03T18:36:52.460Z,33.21
2023-04-03T18:39:23.985Z,33.38
2023-04-03T18:41:53.334Z,33.77
2023-04-03T18:44:23.369Z,33.92
2023-04-03T18:46:52.699Z,33.99
2023-04-03T18:49:21.828Z,34.24
2023-04-03T18:51:50.726Z,34.55
2023-04-03T18:54:20.476Z,34.65
2023-04-03T18:56:49.948Z,34.92
2023-04-03T18:59:18.168Z,35.05
2023-04-03T19:01:46.427Z,35.34
2023-04-03T19:04:15.032Z,35.60
2023-04-03T19:06:43.401Z,35.75
2023-04-03T19:09:11.769Z,36.11
2023-04-03T19:11:39.831Z,36.24
2023-04-03T19:16:40.542Z,36.49
2023-04-03T19:19:08.775Z,37.13
2023-04-03T19:21:41.045Z,37.47
2023-04-03T19:24:09.848Z,37.61
2023-04-03T19:26:37.977Z,37.81
2023-04-03T19:29:06.312Z,37.80
2023-04-03T19:31:38.012Z,37.70
2023-04-03T19:34:06.561Z,37.79
2023-04-03T19:36:36.018Z,37.74
2023-04-03T19:39:04.659Z,37.79
2023-04-03T19:41:35.344Z,38.01
2023-04-03T19:44:07.196Z,38.21
2023-04-03T19:46:37.210Z,38.50
2023-04-03T19:49:06.141Z,38.46
2023-04-03T19:51:34.304Z,38.40
2023-04-03T19:54:05.813Z,38.41
2023-04-03T19:56:34.063Z,38.85
2023-04-03T19:59:02.217Z,38.98
2023-04-03T20:01:31.004Z,39.14
2023-04-03T20:04:00.527Z,39.27
2023-04-03T20:06:28.702Z,39.54
2023-04-03T20:08:57.007Z,39.42
2023-04-03T20:11:26.755Z,39.49
2023-04-03T20:13:56.426Z,39.47
2023-04-03T20:16:25.875Z,39.65
2023-04-03T20:18:56.394Z,39.63
2023-04-03T20:21:30.765Z,39.54
2023-04-03T20:23:59.375Z,39.91
2023-04-03T20:26:29.787Z,39.95
2023-04-03T20:28:59.464Z,40.26
2023-04-03T20:31:29.068Z,40.71
2023-04-03T20:33:57.350Z,40.72
2023-04-03T20:36:28.394Z,40.70
2023-04-03T20:38:58.011Z,40.78
2023-04-03T20:41:26.153Z,40.68
2023-04-03T20:43:54.307Z,40.67
2023-04-03T20:46:25.497Z,40.79
2023-04-03T20:48:53.698Z,41.39
2023-04-03T20:51:22.705Z,41.35
2023-04-03T20:53:52.281Z,41.31
2023-04-03T20:56:22.045Z,41.39
2023-04-03T20:58:50.423Z,41.53
2023-04-03T21:01:21.515Z,41.59
2023-04-03T21:03:50.715Z,41.53
2023-04-03T21:06:56.601Z,41.40
2023-04-03T21:10:02.280Z,41.33
2023-04-03T21:13:07.876Z,41.33
2023-04-03T21:15:47.925Z,41.40
2023-04-03T21:18:34.328Z,41.58
2023-04-03T21:21:02.960Z,41.92
2023-04-03T21:23:31.272Z,41.99
2023-04-03T21:26:00.388Z,42.11
2023-04-03T21:28:28.531Z,42.14
2023-04-03T21:30:56.627Z,42.21
2023-04-03T21:33:26.156Z,42.28
2023-04-03T21:35:58.057Z,42.23
2023-04-03T21:38:27.570Z,42.25
2023-04-03T21:40:57.992Z,42.32
2023-04-03T21:43:26.761Z,42.41
2023-04-03T21:45:56.174Z,42.55
2023-04-03T21:48:26.394Z,42.65
2023-04-03T21:50:54.598Z,42.80
2023-04-03T21:53:22.822Z,42.84
2023-04-03T21:55:54.464Z,42.89
2023-04-03T21:58:22.789Z,43.03
2023-04-03T22:00:51.083Z,43.14
2023-04-03T22:03:22.325Z,43.18
2023-04-03T22:05:51.953Z,43.29
2023-04-03T22:08:20.368Z,43.37
2023-04-03T22:10:48.541Z,43.48
2023-04-03T22:13:16.587Z,43.71
2023-04-03T22:15:48.423Z,43.84
2023-04-03T22:18:16.822Z,43.93
2023-04-03T22:20:45.110Z,44.09
2023-04-03T22:23:14.628Z,44.44
2023-04-03T22:25:42.691Z,44.74
2023-04-03T22:28:10.950Z,45.08
2023-04-03T22:30:42.064Z,45.14
2023-04-03T22:33:10.421Z,45.28
2023-04-03T22:35:47.148Z,45.23
2023-04-03T22:38:16.865Z,45.51
2023-04-03T22:40:46.103Z,45.69
2023-04-03T22:43:14.334Z,46.04
2023-04-03T22:45:49.049Z,45.93
2023-04-03T22:48:17.651Z,46.25
2023-04-03T22:50:46.864Z,46.73
2023-04-03T22:53:16.638Z,46.87
2023-04-03T22:55:44.760Z,46.93
2023-04-03T22:58:12.854Z,46.83
2023-04-03T23:00:41.198Z,46.76
2023-04-03T23:03:11.012Z,46.66
2023-04-03T23:05:40.751Z,46.64
2023-04-03T23:08:08.834Z,46.74
2023-04-03T23:10:38.440Z,46.60
2023-04-03T23:13:06.621Z,46.41
2023-04-03T23:15:34.784Z,46.19
2023-04-03T23:18:03.172Z,45.99
2023-04-03T23:20:31.480Z,45.84
2023-04-03T23:22:59.533Z,45.56
2023-04-03T23:25:27.695Z,45.45
2023-04-03T23:27:57.508Z,45.19
2023-04-03T23:30:25.801Z,45.08
2023-04-03T23:32:54.005Z,44.92
2023-04-03T23:35:22.336Z,45.06
2023-04-03T23:37:50.480Z,44.94
2023-04-03T23:40:18.758Z,44.76
2023-04-03T23:42:47.658Z,44.83
2023-04-03T23:45:17.351Z,44.66
2023-04-03T23:47:45.501Z,44.49
2023-04-03T23:50:13.698Z,44.48
2023-04-03T23:52:41.833Z,44.58
2023-04-03T23:55:10.166Z,44.45
2023-04-03T23:57:38.244Z,44.25
